Jackson, WY

1:18 AM MDT on May 24, 2017 (GMT -0600)
Jackson Hole | | Change Station
Active Advisory: Special Statement

Elev 6447 ft 43.61 °N, 110.74 °W | Updated 3 minutes ago

Clear
Clear
46 °F
Feels Like 45 °F
N
4
Wind Variable Wind from South

Today
High -- | Low -- °F
--% Chance of Precip.
Yesterday
High -- | Low -- °F
Precip. -- in
Pressure 30.03 in
Visibility 10.0 miles
Clouds Clear
Windchill 45 °F
Dew Point 36 °F
Humidity 66%
Rainfall 0.00 in
Snow Depth Not available.
5:49 AM 8:50 PM
Waning Crescent, 4% visible
METAR KJAC 240715Z AUTO 18003KT 10SM CLR 08/02 A3003 RMK AO1
Pressure 30.03 in
Visibility 10.0 miles
Clouds Clear
Windchill 45 °F
Dew Point 36 °F
Humidity 66%
Rainfall 0.00 in
Snow Depth Not available.
5:49 AM 8:50 PM
Waning Crescent, 4% visible
METAR KJAC 240715Z AUTO 18003KT 10SM CLR 08/02 A3003 RMK AO1

Get Your Daily Forecast Email!

Thanks for signing up!

Be on the lookout for a verification email in your inbox.

You'll start receiving severe weather alerts in your inbox..

×

10-Day Weather Forecast

Almanac

Astronomy

May. 24, 2017 Rise Set
Actual Time
Civil Twilight
Nautical Twilight
Astronomical Twilight
Moon
Length of Visible Light
Length of Day
Tomorrow will be .
, % of the Moon is Illuminated

Today's Extremes

State Highs State Lows

Community

WunderPhotos

Category 6

Welcome to Category 6. This is the collective home for Weather Underground's featured writeups by Dr. Jeff Masters (right), Bob Henson (left), Chris Burt, and other regular contributors.

Nearby

Air Quality

  Air Quality AQ Index Pollutant
Not available.

Snow Depth

Station Depth Elevation

Earthquake Activity

City Distance Mag. Time & Date
Minimum magnitude displayed is 2.5.

Coastal Water Temperatures

Place Temperature

Stations

Nearby Weather Stations

Station Location Temp. Windchill Dew Point Humidity Wind Precip. Elev Updated Type
                   

Watches & Warnings

Special Statement
Issued: 1:10 AM MDT May. 24, 2017 – National Weather Service

West winds increase this afternoon to 20 to 30 mph with gusts to
35 to 45 mph at times before decreasing around sunset. Travelers,
especially thoise towing trailers and in high profile vehicles,
are urged to watch for strong Crosswinds when traveling this
afternoon.



110 am MDT Wed may 24 2017

West winds increase this afternoon to 20 to 30 mph with gusts to
35 to 45 mph at times before decreasing around sunset. Travelers,
especially thoise towing trailers and in high profile vehicles,
are urged to watch for strong Crosswinds when traveling this
afternoon.